createdAt,value
2019-05-18T00:00:38.216Z,16.93
2019-05-18T00:03:05.817Z,11.73
2019-05-18T00:05:34.298Z,14.00
2019-05-18T00:08:01.844Z,14.47
2019-05-18T00:10:31.202Z,15.30
2019-05-18T00:12:59.251Z,16.40
2019-05-18T00:15:27.954Z,17.10
2019-05-18T00:17:59.468Z,16.83
2019-05-18T00:20:26.872Z,17.60
2019-05-18T00:22:56.758Z,18.73
2019-05-18T00:25:29.678Z,16.43
2019-05-18T00:27:57.101Z,17.00
2019-05-18T00:30:25.009Z,17.43
2019-05-18T00:32:52.652Z,16.50
2019-05-18T00:35:21.177Z,15.93
2019-05-18T00:37:48.953Z,16.60
2019-05-18T00:40:17.666Z,15.67
2019-05-18T00:42:45.250Z,14.57
2019-05-18T00:45:15.492Z,18.77
2019-05-18T00:47:43.260Z,17.03
2019-05-18T00:50:10.940Z,16.80
2019-05-18T00:52:45.515Z,16.43
2019-05-18T00:55:15.642Z,15.73
2019-05-18T00:57:43.621Z,16.37
2019-05-18T01:00:11.127Z,15.70
2019-05-18T01:02:41.300Z,16.93
2019-05-18T01:05:08.855Z,15.97
2019-05-18T01:07:38.782Z,16.97
2019-05-18T01:10:06.539Z,16.13
2019-05-18T01:12:36.186Z,13.90
2019-05-18T01:15:05.036Z,15.20
2019-05-18T01:17:33.141Z,15.17
2019-05-18T01:20:04.975Z,14.30
2019-05-18T01:22:38.053Z,16.87
2019-05-18T01:25:05.791Z,17.77
2019-05-18T01:27:33.154Z,17.83
2019-05-18T01:30:06.813Z,16.43
2019-05-18T01:32:34.279Z,17.33
2019-05-18T01:35:02.135Z,16.50
2019-05-18T01:37:29.654Z,16.57
2019-05-18T01:39:58.851Z,17.23
2019-05-18T01:42:29.182Z,15.90
2019-05-18T01:44:58.046Z,13.63
2019-05-18T01:47:25.686Z,15.30
2019-05-18T01:49:55.670Z,17.63
2019-05-18T01:52:23.343Z,15.73
2019-05-18T01:54:54.074Z,17.20
2019-05-18T01:57:25.607Z,17.57
2019-05-18T01:59:53.281Z,16.83
2019-05-18T02:02:20.838Z,17.00
2019-05-18T02:04:49.621Z,17.57
2019-05-18T02:07:17.455Z,17.07
2019-05-18T02:09:45.102Z,16.57
2019-05-18T02:12:12.712Z,17.27
2019-05-18T02:14:40.283Z,16.83
2019-05-18T02:17:08.022Z,17.47
2019-05-18T02:19:37.729Z,16.70
2019-05-18T02:22:05.815Z,15.47
2019-05-18T02:24:33.360Z,16.87
2019-05-18T02:27:11.581Z,16.70
2019-05-18T02:29:41.165Z,17.13
2019-05-18T02:32:08.845Z,16.17
2019-05-18T02:34:37.397Z,17.90
2019-05-18T02:37:05.030Z,18.80
2019-05-18T02:39:32.681Z,17.47
2019-05-18T02:42:00.678Z,20.27
2019-05-18T02:44:28.210Z,17.50
2019-05-18T02:46:56.699Z,19.97
2019-05-18T02:49:24.307Z,19.60
2019-05-18T02:51:51.899Z,18.50
2019-05-18T02:54:19.363Z,17.17
2019-05-18T02:56:47.835Z,18.97
2019-05-18T02:59:15.335Z,18.33
2019-05-18T03:01:42.979Z,20.83
2019-05-18T03:04:10.547Z,19.27
2019-05-18T03:06:38.036Z,20.50
2019-05-18T03:09:05.782Z,19.43
2019-05-18T03:11:33.249Z,18.77
2019-05-18T03:14:00.441Z,19.80
2019-05-18T03:16:28.060Z,19.70
2019-05-18T03:19:07.309Z,18.67
2019-05-18T03:21:24.848Z,17.40
2019-05-18T03:23:53.286Z,16.53
2019-05-18T03:26:28.466Z,18.57
2019-05-18T03:28:57.138Z,18.30
2019-05-18T03:31:24.804Z,18.23
2019-05-18T03:33:59.173Z,18.37
2019-05-18T03:36:26.422Z,17.97
2019-05-18T03:38:56.255Z,19.13
2019-05-18T03:41:23.698Z,19.83
2019-05-18T03:43:51.157Z,19.80
2019-05-18T03:46:18.625Z,20.30
2019-05-18T03:48:46.216Z,18.43
2019-05-18T03:51:13.775Z,19.17
2019-05-18T03:53:42.128Z,17.60
2019-05-18T03:56:09.830Z,20.93
2019-05-18T03:58:38.161Z,19.90
2019-05-18T04:01:07.049Z,20.67
2019-05-18T04:03:34.538Z,19.73
2019-05-18T04:06:05.144Z,19.27
2019-05-18T04:08:35.408Z,22.40
2019-05-18T04:11:03.896Z,20.63
2019-05-18T04:13:32.021Z,20.83
2019-05-18T04:16:00.604Z,19.57
2019-05-18T04:18:28.192Z,20.33
2019-05-18T04:20:56.261Z,20.70
2019-05-18T04:23:25.148Z,18.60
2019-05-18T04:25:52.370Z,20.80
2019-05-18T04:28:19.977Z,21.47
2019-05-18T04:30:52.598Z,20.20
2019-05-18T04:33:21.116Z,19.87
2019-05-18T04:35:56.433Z,19.03
2019-05-18T04:38:24.149Z,20.20
2019-05-18T04:40:52.481Z,20.10
2019-05-18T04:43:20.189Z,20.20
2019-05-18T04:45:47.919Z,18.13
2019-05-18T04:48:17.420Z,20.77
2019-05-18T04:50:44.934Z,18.87
2019-05-18T04:53:14.626Z,20.83
2019-05-18T04:55:43.263Z,20.47
2019-05-18T04:58:10.824Z,21.67
2019-05-18T05:00:46.533Z,20.43
2019-05-18T05:03:14.133Z,21.87
2019-05-18T05:05:44.515Z,22.00
2019-05-18T05:08:11.987Z,21.90
2019-05-18T05:10:40.781Z,23.13
2019-05-18T05:13:08.319Z,24.00
2019-05-18T05:15:35.795Z,24.17
2019-05-18T05:18:06.713Z,23.53
2019-05-18T05:20:44.141Z,21.53
2019-05-18T05:23:12.895Z,23.37
2019-05-18T05:25:40.580Z,24.53
2019-05-18T05:28:14.572Z,23.57
2019-05-18T05:30:42.485Z,23.53
2019-05-18T05:33:13.321Z,23.77
2019-05-18T05:35:43.380Z,23.43
2019-05-18T05:38:14.855Z,24.57
2019-05-18T05:40:48.187Z,25.03
2019-05-18T05:43:22.866Z,25.03
2019-05-18T05:45:55.791Z,23.87
2019-05-18T05:48:28.673Z,24.60
2019-05-18T05:50:57.077Z,24.37
2019-05-18T05:53:28.205Z,24.97
2019-05-18T05:55:55.967Z,25.97
2019-05-18T05:58:29.310Z,24.57
2019-05-18T06:00:58.364Z,24.23
2019-05-18T06:03:27.977Z,26.10
2019-05-18T06:05:58.989Z,25.37
2019-05-18T06:08:26.639Z,26.43
2019-05-18T06:10:54.311Z,24.43
2019-05-18T06:13:21.798Z,25.73
2019-05-18T06:15:51.916Z,24.43
2019-05-18T06:18:19.575Z,24.70
2019-05-18T06:20:51.585Z,28.90
2019-05-18T06:23:16.846Z,27.70
2019-05-18T06:25:44.397Z,25.87
2019-05-18T06:28:12.070Z,25.17
2019-05-18T06:30:39.566Z,24.63
2019-05-18T06:33:07.284Z,26.23
2019-05-18T06:35:36.384Z,27.53
2019-05-18T06:38:06.149Z,24.03
2019-05-18T06:40:35.622Z,23.87
2019-05-18T06:43:03.826Z,22.40
2019-05-18T06:45:32.508Z,22.97
2019-05-18T06:48:00.232Z,23.37
2019-05-18T06:50:29.527Z,21.73
2019-05-18T06:52:57.316Z,22.07
2019-05-18T06:55:27.719Z,22.03
2019-05-18T06:57:59.052Z,23.50
2019-05-18T07:00:26.870Z,22.93
2019-05-18T07:02:54.453Z,23.03
2019-05-18T07:05:26.579Z,22.80
2019-05-18T07:07:57.518Z,22.80
2019-05-18T07:10:26.896Z,22.13
2019-05-18T07:12:56.414Z,21.97
2019-05-18T07:15:24.311Z,21.57
2019-05-18T07:17:52.196Z,22.67
2019-05-18T07:20:23.884Z,22.43
2019-05-18T07:22:51.506Z,23.43
2019-05-18T07:25:19.005Z,21.70
2019-05-18T07:27:48.614Z,22.27
2019-05-18T07:30:18.064Z,22.17
2019-05-18T07:32:45.563Z,21.80
2019-05-18T07:35:13.337Z,22.57
2019-05-18T07:37:40.755Z,21.30
2019-05-18T07:40:08.305Z,21.70
2019-05-18T07:42:35.934Z,21.13
2019-05-18T07:45:04.204Z,21.60
2019-05-18T07:47:33.817Z,21.60
2019-05-18T07:50:01.496Z,20.97
2019-05-18T07:52:33.158Z,21.27
2019-05-18T07:55:00.902Z,21.20
2019-05-18T07:57:31.187Z,20.57
2019-05-18T07:59:59.550Z,21.80
2019-05-18T08:02:27.053Z,20.20
2019-05-18T08:04:54.797Z,19.43
2019-05-18T08:07:22.742Z,21.47
2019-05-18T08:09:51.294Z,21.27
2019-05-18T08:12:46.538Z,20.97
2019-05-18T08:15:15.462Z,21.73
2019-05-18T08:17:46.482Z,20.23
2019-05-18T08:20:14.724Z,21.87
2019-05-18T08:22:42.264Z,21.13
2019-05-18T08:25:09.900Z,20.77
2019-05-18T08:27:37.679Z,20.77
2019-05-18T08:30:09.016Z,19.33
2019-05-18T08:32:38.231Z,18.23
2019-05-18T08:35:06.432Z,20.07
2019-05-18T08:37:35.965Z,17.73
2019-05-18T08:40:04.219Z,19.60
2019-05-18T08:42:33.251Z,20.20
2019-05-18T08:45:04.040Z,19.23
2019-05-18T08:47:31.784Z,19.73
2019-05-18T08:49:59.475Z,18.83
2019-05-18T08:52:30.085Z,18.83
2019-05-18T08:54:58.470Z,20.30
2019-05-18T08:57:33.272Z,19.87
2019-05-18T09:00:02.962Z,19.27
2019-05-18T09:02:30.768Z,18.10
2019-05-18T09:04:59.818Z,18.10
2019-05-18T09:07:31.485Z,20.10
2019-05-18T09:10:01.388Z,19.97
2019-05-18T09:12:32.113Z,18.63
2019-05-18T09:14:59.629Z,19.97
2019-05-18T09:17:27.257Z,18.27
2019-05-18T09:20:04.378Z,18.60
2019-05-18T09:22:38.763Z,18.97
2019-05-18T09:25:06.359Z,19.50
2019-05-18T09:27:34.911Z,19.53
2019-05-18T09:30:09.066Z,17.20
2019-05-18T09:32:41.305Z,17.13
2019-05-18T09:35:09.807Z,17.33
2019-05-18T09:37:38.243Z,18.20
2019-05-18T09:40:13.550Z,16.93
2019-05-18T09:42:41.140Z,17.00
2019-05-18T09:45:12.185Z,18.53
2019-05-18T09:47:40.001Z,16.57
2019-05-18T09:50:07.666Z,17.37
2019-05-18T09:52:45.331Z,17.50
2019-05-18T09:55:12.307Z,17.73
2019-05-18T09:57:39.744Z,17.50
2019-05-18T10:00:08.308Z,18.60
2019-05-18T10:02:35.792Z,19.73
2019-05-18T10:05:03.856Z,18.47
2019-05-18T10:07:35.931Z,19.97
2019-05-18T10:10:05.255Z,20.07
2019-05-18T10:12:45.767Z,19.70
2019-05-18T10:15:26.701Z,19.33
2019-05-18T10:17:59.133Z,20.20
2019-05-18T10:20:28.580Z,18.47
2019-05-18T10:26:43.031Z,19.60
2019-05-18T10:29:52.621Z,18.90
2019-05-18T10:33:21.334Z,17.40
2019-05-18T10:36:49.854Z,18.37
2019-05-18T10:39:21.800Z,19.13
2019-05-18T10:41:58.595Z,19.77
2019-05-18T10:44:40.062Z,19.57
2019-05-18T10:47:11.862Z,19.73
2019-05-18T10:49:42.533Z,18.20
2019-05-18T10:52:34.177Z,20.23
2019-05-18T10:55:22.349Z,20.37
2019-05-18T10:58:01.629Z,22.17
2019-05-18T11:00:39.574Z,20.37
2019-05-18T11:03:40.359Z,20.17
2019-05-18T11:06:28.057Z,19.40
2019-05-18T11:09:57.416Z,19.40
2019-05-18T11:12:53.116Z,19.60
2019-05-18T11:15:24.088Z,19.53
2019-05-18T11:17:57.508Z,19.70
2019-05-18T11:20:25.229Z,21.10
2019-05-18T11:23:02.643Z,19.40
2019-05-18T11:25:30.916Z,19.23
2019-05-18T11:28:00.556Z,19.53
2019-05-18T11:30:33.346Z,19.83
2019-05-18T11:33:02.373Z,19.30
2019-05-18T11:35:30.785Z,19.07
2019-05-18T11:37:58.977Z,20.13
2019-05-18T11:40:28.496Z,16.80
2019-05-18T11:42:59.032Z,18.10
2019-05-18T11:45:30.876Z,17.97
2019-05-18T11:47:58.436Z,18.83
2019-05-18T11:50:33.179Z,19.23
2019-05-18T11:53:01.498Z,18.57
2019-05-18T11:55:36.648Z,18.80
2019-05-18T11:58:04.793Z,19.10
2019-05-18T12:00:34.187Z,18.60
2019-05-18T12:03:02.671Z,18.63
2019-05-18T12:05:31.453Z,19.23
2019-05-18T12:08:01.328Z,19.13
2019-05-18T12:10:28.946Z,18.97
2019-05-18T12:13:00.482Z,18.77
2019-05-18T12:15:28.787Z,18.73
2019-05-18T12:17:56.122Z,17.10
2019-05-18T12:20:24.088Z,20.60
2019-05-18T12:22:52.780Z,18.93
2019-05-18T12:25:21.534Z,19.63
2019-05-18T12:27:50.010Z,19.33
2019-05-18T12:30:17.507Z,19.07
2019-05-18T12:32:45.655Z,19.33
2019-05-18T12:35:14.393Z,19.30
2019-05-18T12:37:42.163Z,18.80
2019-05-18T12:40:13.851Z,18.47
2019-05-18T12:42:41.311Z,18.77
2019-05-18T12:45:09.085Z,18.97
2019-05-18T12:47:37.080Z,17.53
2019-05-18T12:50:06.275Z,17.20
2019-05-18T12:52:34.952Z,18.07
2019-05-18T12:55:06.357Z,17.80
2019-05-18T12:57:36.982Z,17.03
2019-05-18T13:00:07.157Z,18.93
2019-05-18T13:02:35.041Z,17.30
2019-05-18T13:05:05.946Z,16.20
2019-05-18T13:07:36.342Z,15.93
2019-05-18T13:10:04.995Z,14.80
2019-05-18T13:12:33.141Z,15.53
2019-05-18T13:15:03.719Z,16.30
2019-05-18T13:17:31.478Z,15.27
2019-05-18T13:19:59.446Z,18.23
2019-05-18T13:22:28.354Z,18.00
2019-05-18T13:24:58.441Z,17.63
2019-05-18T13:27:38.864Z,17.17
2019-05-18T13:30:00.052Z,16.70
2019-05-18T13:32:28.449Z,18.87
2019-05-18T13:34:56.401Z,18.53
2019-05-18T13:37:25.174Z,18.27
2019-05-18T13:39:53.178Z,17.73
2019-05-18T13:42:21.004Z,15.87
2019-05-18T13:44:48.510Z,15.77
2019-05-18T13:47:20.324Z,17.83
2019-05-18T13:49:51.035Z,14.80
2019-05-18T13:52:18.884Z,13.73
2019-05-18T13:55:02.179Z,14.00
2019-05-18T13:57:29.897Z,18.03
2019-05-18T14:00:13.646Z,14.47
2019-05-18T14:02:40.409Z,17.20
2019-05-18T14:05:09.797Z,15.47
2019-05-18T14:07:38.699Z,17.83
2019-05-18T14:10:07.393Z,21.77
2019-05-18T14:12:38.351Z,19.00
2019-05-18T14:15:07.825Z,17.23
2019-05-18T14:17:36.642Z,20.80
2019-05-18T14:20:04.182Z,20.60
2019-05-18T14:22:46.384Z,20.43
2019-05-18T14:25:19.755Z,21.60
2019-05-18T14:27:53.684Z,21.20
2019-05-18T14:30:23.192Z,21.00
2019-05-18T14:32:50.731Z,22.07
2019-05-18T14:35:19.979Z,22.70
2019-05-18T14:37:48.895Z,20.13
2019-05-18T14:40:16.620Z,21.80
2019-05-18T14:42:44.065Z,22.63
2019-05-18T14:45:11.637Z,22.87
2019-05-18T14:47:52.585Z,21.33
2019-05-18T14:50:20.489Z,22.00
2019-05-18T14:52:48.355Z,22.97
2019-05-18T14:55:16.608Z,24.10
2019-05-18T14:57:44.259Z,23.77
2019-05-18T15:00:11.865Z,25.20
2019-05-18T15:02:40.036Z,26.20
2019-05-18T15:05:07.770Z,28.53
2019-05-18T15:07:35.570Z,28.40
2019-05-18T15:10:08.148Z,28.13
2019-05-18T15:12:42.697Z,27.93
2019-05-18T15:15:10.267Z,26.17
2019-05-18T15:17:41.413Z,23.63
2019-05-18T15:20:09.095Z,23.10
2019-05-18T15:22:36.640Z,21.50
2019-05-18T15:25:04.334Z,25.70
2019-05-18T15:27:34.021Z,23.60
2019-05-18T15:30:02.026Z,26.30
2019-05-18T15:32:33.161Z,28.10
2019-05-18T15:35:03.517Z,26.80
2019-05-18T15:37:30.997Z,23.83
2019-05-18T15:39:58.604Z,28.23
2019-05-18T15:42:31.403Z,28.13
2019-05-18T15:45:04.414Z,26.70
2019-05-18T15:47:41.714Z,30.40
2019-05-18T15:50:09.402Z,29.40
2019-05-18T15:52:37.823Z,28.20
2019-05-18T15:55:05.460Z,27.63
2019-05-18T15:57:33.915Z,27.90
2019-05-18T16:00:01.226Z,28.33
2019-05-18T16:02:28.847Z,28.07
2019-05-18T16:04:56.481Z,28.20
2019-05-18T16:07:23.979Z,27.10
2019-05-18T16:09:51.626Z,28.73
2019-05-18T16:12:19.145Z,25.93
2019-05-18T16:14:49.868Z,26.73
2019-05-18T16:17:17.272Z,28.73
2019-05-18T16:19:44.400Z,28.17
2019-05-18T16:22:18.823Z,28.37
2019-05-18T16:24:46.875Z,25.07
2019-05-18T16:27:15.392Z,26.37
2019-05-18T16:29:42.954Z,25.50
2019-05-18T16:32:17.193Z,22.87
2019-05-18T16:34:44.783Z,23.57
2019-05-18T16:37:14.263Z,24.73
2019-05-18T16:39:41.717Z,23.57
2019-05-18T16:42:10.484Z,24.20
2019-05-18T16:44:39.267Z,24.23
2019-05-18T16:47:06.744Z,23.47
2019-05-18T16:49:34.890Z,22.73
2019-05-18T16:52:02.465Z,23.33
2019-05-18T16:54:32.527Z,23.60
2019-05-18T16:57:00.144Z,24.43
2019-05-18T16:59:27.577Z,26.33
2019-05-18T17:01:59.444Z,26.53
2019-05-18T17:04:26.814Z,27.60
2019-05-18T17:06:55.583Z,27.33
2019-05-18T17:09:23.196Z,29.50
2019-05-18T17:11:51.658Z,26.90
2019-05-18T17:14:19.102Z,29.67
2019-05-18T17:16:47.121Z,30.73
2019-05-18T17:19:15.654Z,33.97
2019-05-18T17:21:43.376Z,31.70
2019-05-18T17:24:18.468Z,31.63
2019-05-18T17:26:52.841Z,31.70
2019-05-18T17:29:18.113Z,32.90
2019-05-18T17:31:46.097Z,31.07
2019-05-18T17:34:16.210Z,32.03
2019-05-18T17:36:46.966Z,35.27
2019-05-18T17:39:15.579Z,33.70
2019-05-18T17:41:44.485Z,36.73
2019-05-18T17:44:12.509Z,34.10
2019-05-18T17:46:44.989Z,35.13
2019-05-18T17:49:25.862Z,34.40
2019-05-18T17:51:44.237Z,31.37
2019-05-18T17:54:11.782Z,34.70
2019-05-18T17:56:39.282Z,35.53
2019-05-18T17:59:07.716Z,36.63
2019-05-18T18:02:25.034Z,36.43
2019-05-18T18:04:54.157Z,37.33
2019-05-18T18:07:22.850Z,36.73
2019-05-18T18:09:51.499Z,38.10
2019-05-18T18:12:22.507Z,38.70
2019-05-18T18:15:00.172Z,37.03
2019-05-18T18:17:28.380Z,37.20
2019-05-18T18:20:00.963Z,37.30
2019-05-18T18:22:28.464Z,37.47
2019-05-18T18:24:58.087Z,37.80
2019-05-18T18:27:29.716Z,36.80
2019-05-18T18:30:05.188Z,35.43
2019-05-18T18:32:34.109Z,39.53
2019-05-18T18:35:06.039Z,35.37
2019-05-18T18:37:34.673Z,36.67
2019-05-18T18:40:03.872Z,37.47
2019-05-18T18:42:33.172Z,36.43
2019-05-18T18:45:01.016Z,37.93
2019-05-18T18:47:29.509Z,37.67
2019-05-18T18:49:57.107Z,36.30
2019-05-18T18:52:24.915Z,36.60
2019-05-18T18:54:52.685Z,35.60
2019-05-18T18:57:20.739Z,33.53
2019-05-18T18:59:51.335Z,36.83
2019-05-18T19:02:19.998Z,35.33
2019-05-18T19:04:51.518Z,34.53
2019-05-18T19:07:25.066Z,36.10
2019-05-18T19:09:52.727Z,35.03
2019-05-18T19:12:20.637Z,34.50
2019-05-18T19:14:49.467Z,34.50
2019-05-18T19:17:25.504Z,35.97
2019-05-18T19:19:53.091Z,36.07
2019-05-18T19:22:21.092Z,34.97
2019-05-18T19:24:51.771Z,34.93
2019-05-18T19:27:19.152Z,35.80
2019-05-18T19:29:46.795Z,38.23
2019-05-18T19:32:14.824Z,37.57
2019-05-18T19:34:42.502Z,38.60
2019-05-18T19:37:13.317Z,37.13
2019-05-18T19:39:45.171Z,35.83
2019-05-18T19:42:13.359Z,37.07
2019-05-18T19:44:41.573Z,35.80
2019-05-18T19:47:10.099Z,36.20
2019-05-18T19:49:37.797Z,38.70
2019-05-18T19:52:06.213Z,38.60
2019-05-18T19:54:33.910Z,37.83
2019-05-18T19:57:01.460Z,35.47
2019-05-18T19:59:29.991Z,36.77
2019-05-18T20:01:57.646Z,38.50
2019-05-18T20:04:25.364Z,36.77
2019-05-18T20:06:54.142Z,38.07
2019-05-18T20:09:22.187Z,37.17
2019-05-18T20:11:49.865Z,33.60
2019-05-18T20:14:17.333Z,40.10
2019-05-18T20:16:45.140Z,36.20
2019-05-18T20:19:14.421Z,35.93
2019-05-18T20:21:42.203Z,38.53
2019-05-18T20:24:09.978Z,37.67
2019-05-18T20:26:37.404Z,37.60
2019-05-18T20:29:05.279Z,37.43
2019-05-18T20:31:33.312Z,38.27
2019-05-18T20:34:01.228Z,38.03
2019-05-18T20:36:29.430Z,36.23
2019-05-18T20:38:57.936Z,38.87
2019-05-18T20:41:25.657Z,37.53
2019-05-18T20:43:53.235Z,36.47
2019-05-18T20:46:20.992Z,37.70
2019-05-18T20:48:48.710Z,40.63
2019-05-18T20:51:16.907Z,38.67
2019-05-18T20:55:04.874Z,37.50
2019-05-18T20:57:33.370Z,33.83
2019-05-18T21:00:01.428Z,34.80
2019-05-18T21:02:31.511Z,35.90
2019-05-18T21:04:59.798Z,38.33
2019-05-18T21:07:27.345Z,37.50
2019-05-18T21:09:55.542Z,37.00
2019-05-18T21:12:23.197Z,36.40
2019-05-18T21:14:51.141Z,34.23
2019-05-18T21:17:19.447Z,37.63
2019-05-18T21:19:47.140Z,39.80
2019-05-18T21:22:14.771Z,36.43
2019-05-18T21:24:43.215Z,37.93
2019-05-18T21:27:11.266Z,33.90
2019-05-18T21:29:44.532Z,40.40
2019-05-18T21:32:14.294Z,38.70
2019-05-18T21:34:42.366Z,38.80
2019-05-18T21:37:09.758Z,38.10
2019-05-18T21:39:37.371Z,36.93
2019-05-18T21:42:05.649Z,39.87
2019-05-18T21:44:33.018Z,38.37
2019-05-18T21:47:00.677Z,42.43
2019-05-18T21:49:28.395Z,40.93
2019-05-18T21:51:56.761Z,40.63
2019-05-18T21:54:26.228Z,39.00
2019-05-18T21:56:54.543Z,38.07
2019-05-18T21:59:23.318Z,40.63
2019-05-18T22:01:50.710Z,38.63
2019-05-18T22:04:18.099Z,37.93
2019-05-18T22:06:48.992Z,36.20
2019-05-18T22:09:16.790Z,39.07
2019-05-18T22:11:44.063Z,37.23
2019-05-18T22:14:13.560Z,38.37
2019-05-18T22:16:42.080Z,40.83
2019-05-18T22:19:09.545Z,38.80
2019-05-18T22:21:39.659Z,36.73
2019-05-18T22:24:07.271Z,39.30
2019-05-18T22:26:36.278Z,35.90
2019-05-18T22:29:04.234Z,38.20
2019-05-18T22:31:32.308Z,38.13
2019-05-18T22:34:00.049Z,40.63
2019-05-18T22:36:27.708Z,33.13
2019-05-18T22:38:56.463Z,40.70
2019-05-18T22:41:25.175Z,39.80
2019-05-18T22:43:53.647Z,37.17
2019-05-18T22:46:22.780Z,40.17
2019-05-18T22:48:51.373Z,39.70
2019-05-18T22:51:19.043Z,40.67
2019-05-18T22:53:47.871Z,36.17
2019-05-18T22:56:15.338Z,40.70
2019-05-18T22:58:43.822Z,35.10
2019-05-18T23:01:11.480Z,39.77
2019-05-18T23:03:51.884Z,41.13
2019-05-18T23:06:19.547Z,36.23
2019-05-18T23:08:47.878Z,38.10
2019-05-18T23:11:16.549Z,39.33
2019-05-18T23:13:44.219Z,39.10
2019-05-18T23:16:13.116Z,41.83
2019-05-18T23:18:55.641Z,40.17
2019-05-18T23:21:11.511Z,37.37
2019-05-18T23:23:39.724Z,36.87
2019-05-18T23:26:11.631Z,40.73
2019-05-18T23:28:42.284Z,37.60
2019-05-18T23:31:10.033Z,39.27
2019-05-18T23:33:48.447Z,41.10
2019-05-18T23:36:16.242Z,34.93
2019-05-18T23:38:50.230Z,41.10
2019-05-18T23:41:18.981Z,41.27
2019-05-18T23:43:48.568Z,40.77
2019-05-18T23:46:17.240Z,38.50
2019-05-18T23:48:48.040Z,40.20
2019-05-18T23:51:16.283Z,39.00
2019-05-18T23:53:49.662Z,41.10
2019-05-18T23:56:18.454Z,43.63
2019-05-18T23:58:46.472Z,32.63
